Etusivu
METAR-TAF:

METAR-TAF

Lentoasemat :

Hobbs, New Mexico, Yhdysvallat

Leveyspiiri: 32-41N, Pituuspiiri: 103-13W, korkeus merenpinnasta: 1115 m

Tämänhetkinen sää

Tämä raportti tehtiin 52 minuuttia sitten, kello 15.50 UTC
Tuuli 11 kn etelästä
Lämpötila 34°C
Kosteus 22%
Ilmanpaine 1019 hPa
Näkyvyys: 16.1 km
selkeää

METAR: KHOB 201550Z 18011KT 10SM SKC 34/09 A3009

Aika: 10:42 (16:42 UTC)

Sääennuste

Tämä raportti tehtiin 5 tuntia ja 22 minuuttia sitten, kello 11.20 UTC
Ennuste voimassa 20. päivästä klo 12 UTC - 21. päivään klo 12 UTC
Tuuli 10 kn etelästä/kaakosta
Näkyvyys: 10 km
selkeää

TAF: KHOB 201120Z 2012/2112 15010KT P6SM SKC

Säähavainnot ja -ennusteet yli 4000 lentoasemalta (METAR- ja TAF-raportit).

Käytössä olevat sääasemat on merkitty karttaan keltaisilla ja punaisilla pisteillä.

Aseta hiiri pisteen päälle nähdäksesi sääaseman nimen.

Klikkaa sitten nähdäksesi säähavainnot ja -ennusteet.

Kartan vaihtaminen: klikkaa mustalla rastilla varustettuja vihreitä pisteitä, niin voit zoomata sisään; viivalla varustettua vihreää pistettä, niin voit zoomata ulos tai vihreitä nuolia, niin pääset viereisille kartoille.


METAR-TAF: